createdAt,value
2022-09-11T00:01:44.305Z,4.00
2022-09-11T00:04:12.808Z,3.75
2022-09-11T00:06:41.288Z,3.75
2022-09-11T00:09:09.901Z,2.00
2022-09-11T00:11:43.063Z,3.00
2022-09-11T00:14:14.250Z,4.75
2022-09-11T00:16:45.763Z,2.00
2022-09-11T00:19:18.027Z,3.00
2022-09-11T00:21:47.722Z,3.75
2022-09-11T00:24:15.919Z,4.33
2022-09-11T00:26:45.379Z,4.00
2022-09-11T00:29:13.904Z,4.00
2022-09-11T00:31:42.324Z,3.75
2022-09-11T00:34:10.662Z,4.00
2022-09-11T00:36:41.702Z,3.75
2022-09-11T00:39:14.797Z,4.25
2022-09-11T00:41:45.170Z,4.00
2022-09-11T00:44:19.303Z,4.25
2022-09-11T00:46:51.301Z,3.00
2022-09-11T00:49:27.264Z,4.50
2022-09-11T00:52:01.165Z,5.00
2022-09-11T00:54:34.059Z,4.00
2022-09-11T00:57:06.117Z,4.00
2022-09-11T00:59:35.111Z,5.25
2022-09-11T01:02:03.724Z,4.00
2022-09-11T01:04:33.857Z,4.00
2022-09-11T01:07:03.121Z,4.00
2022-09-11T01:09:33.445Z,4.00
2022-09-11T01:12:10.906Z,3.33
2022-09-11T01:14:53.140Z,3.33
2022-09-11T01:17:33.479Z,4.00
2022-09-11T01:20:22.884Z,4.33
2022-09-11T01:23:30.163Z,5.00
2022-09-11T01:26:22.793Z,4.00
2022-09-11T01:29:27.338Z,3.50
2022-09-11T01:32:15.465Z,3.00
2022-09-11T01:35:19.083Z,5.00
2022-09-11T01:38:01.781Z,4.25
2022-09-11T01:40:41.139Z,4.00
2022-09-11T01:43:22.522Z,3.67
2022-09-11T01:45:53.195Z,2.50
2022-09-11T01:48:26.136Z,3.25
2022-09-11T01:50:57.344Z,2.75
2022-09-11T01:53:32.545Z,3.00
2022-09-11T01:56:06.536Z,3.00
2022-09-11T01:58:36.832Z,4.50
2022-09-11T02:01:20.400Z,3.00
2022-09-11T02:03:59.621Z,4.00
2022-09-11T02:06:51.025Z,2.75
2022-09-11T02:09:22.913Z,2.25
2022-09-11T02:11:54.569Z,4.00
2022-09-11T02:14:30.832Z,2.25
2022-09-11T02:17:18.564Z,3.00
2022-09-11T02:19:46.842Z,2.75
2022-09-11T02:22:15.225Z,4.00
2022-09-11T02:24:43.807Z,3.25
2022-09-11T02:27:17.256Z,4.00
2022-09-11T02:29:46.197Z,2.00
2022-09-11T02:32:15.018Z,2.33
2022-09-11T02:34:43.774Z,2.25
2022-09-11T02:37:12.157Z,4.00
2022-09-11T02:39:56.649Z,5.00
2022-09-11T02:42:49.881Z,3.00
2022-09-11T02:45:39.468Z,4.00
2022-09-11T02:48:15.293Z,3.00
2022-09-11T02:50:59.167Z,4.00
2022-09-11T02:53:39.996Z,4.75
2022-09-11T02:56:15.977Z,4.50
2022-09-11T02:58:49.020Z,4.67
2022-09-11T03:01:17.478Z,4.50
2022-09-11T03:03:46.901Z,4.00
2022-09-11T03:06:24.960Z,6.00
2022-09-11T03:08:53.647Z,4.00
2022-09-11T03:11:22.020Z,5.00
2022-09-11T03:13:50.312Z,5.25
2022-09-11T03:16:19.464Z,4.00
2022-09-11T03:18:47.981Z,4.50
2022-09-11T03:21:17.279Z,6.00
2022-09-11T03:23:45.559Z,4.75
2022-09-11T03:26:13.837Z,5.25
2022-09-11T03:28:42.423Z,3.50
2022-09-11T03:31:10.977Z,4.00
2022-09-11T03:33:39.727Z,3.00
2022-09-11T03:36:09.756Z,5.00
2022-09-11T03:38:38.395Z,5.00
2022-09-11T03:41:06.895Z,5.33
2022-09-11T03:43:35.458Z,4.50
2022-09-11T03:46:04.463Z,5.00
2022-09-11T03:48:33.036Z,4.00
2022-09-11T03:51:01.418Z,5.00
2022-09-11T03:53:29.796Z,5.67
2022-09-11T03:55:58.901Z,5.50
2022-09-11T03:58:27.375Z,4.33
2022-09-11T04:00:56.500Z,5.75
2022-09-11T04:03:25.158Z,5.00
2022-09-11T04:06:00.754Z,5.00
2022-09-11T04:08:33.948Z,6.00
2022-09-11T04:11:05.206Z,5.00
2022-09-11T04:13:39.055Z,5.00
2022-09-11T04:16:14.832Z,5.00
2022-09-11T04:18:44.816Z,4.00
2022-09-11T04:21:15.542Z,5.00
2022-09-11T04:23:45.884Z,3.00
2022-09-11T04:26:19.996Z,4.50
2022-09-11T04:28:48.270Z,4.67
2022-09-11T04:31:18.109Z,4.00
2022-09-11T04:33:46.873Z,6.00
2022-09-11T04:36:18.527Z,5.00
2022-09-11T04:38:48.224Z,4.00
2022-09-11T04:41:17.143Z,5.00
2022-09-11T04:43:45.410Z,4.25
2022-09-11T04:46:16.517Z,4.33
2022-09-11T04:48:49.132Z,5.50
2022-09-11T04:51:24.658Z,5.50
2022-09-11T04:53:55.380Z,3.67
2022-09-11T04:56:25.534Z,4.67
2022-09-11T04:58:58.112Z,4.67
2022-09-11T05:01:27.800Z,3.33
2022-09-11T05:03:56.611Z,3.67
2022-09-11T05:06:25.202Z,4.00
2022-09-11T05:08:53.571Z,3.25
2022-09-11T05:11:22.269Z,2.67
2022-09-11T05:13:50.846Z,5.25
2022-09-11T05:16:19.869Z,4.33
2022-09-11T05:18:52.832Z,4.33
2022-09-11T05:21:23.152Z,4.00
2022-09-11T05:23:54.028Z,4.00
2022-09-11T05:26:31.494Z,4.00
2022-09-11T05:29:02.060Z,4.25
2022-09-11T05:31:32.280Z,4.00
2022-09-11T05:34:01.022Z,5.00
2022-09-11T05:36:31.552Z,4.25
2022-09-11T05:39:00.857Z,5.25
2022-09-11T05:41:29.128Z,3.33
2022-09-11T05:43:58.744Z,5.67
2022-09-11T05:46:27.425Z,4.75
2022-09-11T05:48:55.601Z,5.33
2022-09-11T05:51:24.594Z,6.00
2022-09-11T05:53:54.306Z,6.50
2022-09-11T05:56:24.937Z,7.25
2022-09-11T05:58:54.135Z,6.00
2022-09-11T06:01:27.319Z,5.00
2022-09-11T06:03:55.912Z,14.50
2022-09-11T06:06:25.110Z,12.33
2022-09-11T06:08:53.695Z,14.25
2022-09-11T06:11:22.778Z,18.33
2022-09-11T06:13:51.886Z,23.25
2022-09-11T06:16:22.594Z,27.33
2022-09-11T06:18:52.230Z,15.67
2022-09-11T06:21:22.776Z,22.25
2022-09-11T06:23:52.883Z,21.00
2022-09-11T06:26:24.171Z,19.50
2022-09-11T06:28:53.424Z,24.75
2022-09-11T06:31:24.623Z,33.50
2022-09-11T06:33:53.563Z,23.33
2022-09-11T06:36:24.627Z,29.50
2022-09-11T06:38:57.491Z,31.00
2022-09-11T06:41:27.767Z,29.00
2022-09-11T06:43:56.104Z,30.50
2022-09-11T06:46:25.394Z,27.67
2022-09-11T06:48:54.389Z,19.50
2022-09-11T06:51:24.106Z,20.50
2022-09-11T06:53:58.190Z,17.67
2022-09-11T06:56:29.196Z,20.50
2022-09-11T06:58:57.839Z,18.75
2022-09-11T07:01:26.802Z,16.50
2022-09-11T07:03:56.441Z,17.75
2022-09-11T07:06:27.995Z,15.25
2022-09-11T07:09:03.306Z,16.75
2022-09-11T07:11:34.689Z,16.00
2022-09-11T07:14:06.150Z,14.75
2022-09-11T07:16:35.086Z,16.25
2022-09-11T07:19:04.808Z,11.00
2022-09-11T07:21:34.766Z,15.25
2022-09-11T07:24:04.552Z,14.75
2022-09-11T07:26:32.845Z,12.25
2022-09-11T07:29:01.332Z,13.00
2022-09-11T07:31:33.047Z,12.00
2022-09-11T07:34:04.949Z,11.25
2022-09-11T07:36:35.990Z,11.25
2022-09-11T07:39:05.600Z,13.33
2022-09-11T07:41:33.888Z,8.00
2022-09-11T07:44:03.936Z,7.75
2022-09-11T07:46:33.266Z,11.50
2022-09-11T07:49:03.215Z,14.75
2022-09-11T07:51:31.695Z,12.50
2022-09-11T07:54:00.380Z,14.25
2022-09-11T07:56:28.861Z,12.50
2022-09-11T07:58:57.870Z,13.50
2022-09-11T08:01:30.069Z,13.00
2022-09-11T08:04:01.400Z,12.25
2022-09-11T08:06:32.800Z,12.50
2022-09-11T08:09:04.481Z,13.67
2022-09-11T08:11:36.651Z,14.33
2022-09-11T08:14:05.436Z,14.75
2022-09-11T08:16:36.534Z,11.33
2022-09-11T08:19:05.832Z,9.00
2022-09-11T08:21:34.471Z,11.75
2022-09-11T08:24:04.284Z,14.50
2022-09-11T08:26:33.247Z,13.00
2022-09-11T08:29:02.473Z,15.50
2022-09-11T08:31:30.783Z,14.00
2022-09-11T08:33:59.335Z,12.33
2022-09-11T08:36:30.064Z,15.50
2022-09-11T08:39:00.891Z,14.50
2022-09-11T08:41:49.256Z,13.00
2022-09-11T08:44:21.524Z,14.00
2022-09-11T08:46:58.199Z,14.75
2022-09-11T08:49:28.625Z,15.00
2022-09-11T08:52:00.429Z,12.75
2022-09-11T08:54:38.327Z,14.50
2022-09-11T08:57:10.873Z,14.25
2022-09-11T09:00:00.647Z,13.00
2022-09-11T09:02:59.337Z,16.00
2022-09-11T09:05:46.760Z,12.25
2022-09-11T09:09:05.826Z,11.00
2022-09-11T09:11:46.906Z,10.67
2022-09-11T09:14:47.247Z,14.00
2022-09-11T09:17:19.810Z,13.33
2022-09-11T09:20:00.889Z,11.75
2022-09-11T09:22:49.667Z,13.00
2022-09-11T09:25:22.898Z,14.50
2022-09-11T09:28:17.643Z,13.00
2022-09-11T09:31:01.851Z,13.50
2022-09-11T09:33:50.754Z,13.67
2022-09-11T09:36:47.041Z,11.25
2022-09-11T09:39:17.344Z,14.75
2022-09-11T09:42:30.560Z,10.50
2022-09-11T09:45:53.308Z,12.33
2022-09-11T09:48:22.490Z,15.00
2022-09-11T09:50:50.768Z,12.75
2022-09-11T09:53:22.116Z,15.67
2022-09-11T09:55:52.220Z,15.00
2022-09-11T09:58:26.342Z,12.33
2022-09-11T10:00:54.833Z,14.00
2022-09-11T10:03:25.156Z,13.75
2022-09-11T10:05:54.867Z,12.00
2022-09-11T10:08:37.289Z,11.25
2022-09-11T10:11:08.076Z,15.25
2022-09-11T10:13:44.202Z,14.75
2022-09-11T10:16:27.710Z,11.33
2022-09-11T10:18:56.808Z,14.00
2022-09-11T10:21:34.095Z,11.75
2022-09-11T10:24:17.627Z,14.25
2022-09-11T10:26:50.926Z,15.75
2022-09-11T10:29:24.581Z,12.33
2022-09-11T10:31:58.846Z,12.33
2022-09-11T10:34:29.002Z,12.67
2022-09-11T10:37:01.565Z,11.25
2022-09-11T10:39:32.596Z,13.00
2022-09-11T10:42:10.486Z,11.25
2022-09-11T10:44:43.864Z,11.67
2022-09-11T10:47:38.673Z,10.00
2022-09-11T10:50:19.252Z,13.33
2022-09-11T10:53:13.637Z,10.25
2022-09-11T10:55:46.631Z,14.25
2022-09-11T10:58:19.564Z,9.67
2022-09-11T11:00:49.741Z,12.00
2022-09-11T11:03:23.294Z,7.67
2022-09-11T11:06:08.196Z,12.00
2022-09-11T11:08:59.210Z,14.00
2022-09-11T11:11:53.395Z,12.00
2022-09-11T11:14:44.383Z,10.75
2022-09-11T11:17:48.701Z,14.33
2022-09-11T11:20:45.163Z,10.00
2022-09-11T11:23:45.901Z,10.75
2022-09-11T11:26:21.141Z,14.00
2022-09-11T11:29:14.918Z,9.25
2022-09-11T11:31:54.150Z,10.75
2022-09-11T11:34:51.559Z,14.25
2022-09-11T11:37:35.416Z,9.33
2022-09-11T11:40:21.650Z,10.75
2022-09-11T11:42:56.214Z,11.25
2022-09-11T11:45:32.737Z,6.75
2022-09-11T11:48:08.336Z,10.25
2022-09-11T11:50:58.803Z,10.25
2022-09-11T11:53:37.410Z,8.25
2022-09-11T11:56:13.832Z,9.00
2022-09-11T11:59:12.873Z,9.67
2022-09-11T12:01:53.218Z,10.25
2022-09-11T12:04:35.139Z,10.00
2022-09-11T12:07:05.156Z,9.00
2022-09-11T12:09:34.114Z,9.67
2022-09-11T12:12:07.509Z,9.00
2022-09-11T12:14:36.028Z,11.75
2022-09-11T12:17:25.806Z,8.75
2022-09-11T12:20:12.410Z,7.25
2022-09-11T12:22:50.451Z,9.33
2022-09-11T12:25:21.970Z,10.00
2022-09-11T12:27:53.113Z,7.50
2022-09-11T12:30:25.928Z,8.00
2022-09-11T12:32:56.232Z,9.33
2022-09-11T12:35:53.272Z,5.67
2022-09-11T12:38:29.742Z,9.33
2022-09-11T12:41:07.747Z,8.33
2022-09-11T12:43:35.924Z,6.25
2022-09-11T12:46:11.376Z,5.75
2022-09-11T12:48:56.254Z,8.25
2022-09-11T12:51:34.341Z,8.50
2022-09-11T12:54:16.415Z,7.25
2022-09-11T12:56:50.854Z,7.00
2022-09-11T12:59:46.534Z,7.75
2022-09-11T13:02:26.776Z,11.33
2022-09-11T13:04:56.860Z,11.00
2022-09-11T13:07:46.152Z,14.00
2022-09-11T13:10:33.846Z,14.50
2022-09-11T13:13:04.437Z,7.67
2022-09-11T13:15:34.137Z,9.25
2022-09-11T13:18:25.931Z,7.50
2022-09-11T13:21:03.619Z,8.67
2022-09-11T13:23:33.242Z,7.67
2022-09-11T13:26:02.437Z,8.33
2022-09-11T13:28:32.004Z,8.75
2022-09-11T13:31:03.487Z,13.00
2022-09-11T13:33:32.490Z,10.00
2022-09-11T13:36:07.317Z,27.50
2022-09-11T13:38:37.130Z,18.67
2022-09-11T13:41:09.096Z,22.00
2022-09-11T13:43:50.687Z,13.75
2022-09-11T13:46:32.040Z,18.75
2022-09-11T13:49:23.386Z,13.00
2022-09-11T13:51:51.974Z,12.00
2022-09-11T13:54:36.160Z,18.25
2022-09-11T13:57:04.504Z,17.00
2022-09-11T13:59:54.589Z,11.33
2022-09-11T14:02:31.394Z,10.25
2022-09-11T14:05:09.547Z,12.00
2022-09-11T14:08:08.061Z,13.00
2022-09-11T14:10:47.596Z,12.75
2022-09-11T14:13:20.795Z,13.50
2022-09-11T14:15:53.610Z,10.25
2022-09-11T14:18:31.393Z,10.00
2022-09-11T14:21:02.668Z,9.75
2022-09-11T14:23:31.822Z,11.00
2022-09-11T14:26:17.324Z,7.00
2022-09-11T14:28:59.716Z,25.00
2022-09-11T14:31:35.143Z,11.33
2022-09-11T14:34:16.004Z,32.33
2022-09-11T14:36:51.501Z,15.00
2022-09-11T14:39:42.708Z,26.25
2022-09-11T14:42:17.001Z,97.25
2022-09-11T14:44:45.299Z,115.00
2022-09-11T14:47:17.678Z,70.25
2022-09-11T14:49:46.854Z,46.00
2022-09-11T14:52:18.099Z,44.50
2022-09-11T14:54:47.911Z,43.67
2022-09-11T14:57:20.998Z,36.00
2022-09-11T14:59:50.521Z,34.00
2022-09-11T15:02:20.160Z,17.33
2022-09-11T15:04:49.520Z,23.33
2022-09-11T15:07:23.605Z,20.00
2022-09-11T15:09:54.063Z,32.67
2022-09-11T15:12:23.369Z,25.00
2022-09-11T15:14:57.133Z,27.75
2022-09-11T15:17:28.871Z,32.00
2022-09-11T15:20:00.385Z,35.00
2022-09-11T15:22:28.965Z,36.50
2022-09-11T15:24:57.547Z,40.50
2022-09-11T15:27:25.961Z,42.50
2022-09-11T15:29:54.818Z,29.33
2022-09-11T15:32:22.996Z,34.33
2022-09-11T15:34:52.089Z,24.00
2022-09-11T15:37:20.366Z,23.00
2022-09-11T15:39:50.882Z,24.50
2022-09-11T15:42:19.692Z,26.75
2022-09-11T15:44:48.378Z,22.25
2022-09-11T15:47:17.059Z,19.25
2022-09-11T15:49:48.191Z,20.00
2022-09-11T15:52:16.583Z,16.25
2022-09-11T15:54:45.992Z,13.00
2022-09-11T15:57:14.263Z,16.33
2022-09-11T15:59:43.461Z,18.00
2022-09-11T16:02:12.829Z,12.33
2022-09-11T16:04:41.449Z,13.67
2022-09-11T16:07:09.931Z,15.00
2022-09-11T16:09:38.926Z,10.25
2022-09-11T16:12:07.725Z,10.33
2022-09-11T16:14:37.581Z,12.00
2022-09-11T16:17:07.214Z,9.50
2022-09-11T16:19:36.255Z,9.00
2022-09-11T16:22:06.351Z,6.00
2022-09-11T16:24:38.319Z,5.67
2022-09-11T16:27:08.721Z,7.75
2022-09-11T16:30:15.595Z,7.50
2022-09-11T16:32:29.775Z,7.50
2022-09-11T16:34:59.949Z,6.50
2022-09-11T16:37:29.396Z,6.25
2022-09-11T16:39:58.232Z,7.25
2022-09-11T16:42:26.820Z,7.25
2022-09-11T16:44:55.173Z,5.50
2022-09-11T16:47:24.707Z,5.00
2022-09-11T16:50:09.133Z,5.75
2022-09-11T16:52:39.393Z,5.00
2022-09-11T16:55:10.383Z,5.00
2022-09-11T16:57:39.472Z,5.00
2022-09-11T17:00:10.296Z,4.00
2022-09-11T17:02:40.737Z,4.33
2022-09-11T17:05:10.016Z,5.00
2022-09-11T17:07:38.417Z,5.00
2022-09-11T17:10:07.819Z,4.00
2022-09-11T17:12:36.401Z,3.67
2022-09-11T17:15:05.326Z,4.00
2022-09-11T17:17:35.743Z,3.00
2022-09-11T17:20:04.715Z,3.00
2022-09-11T17:22:33.198Z,3.50
2022-09-11T17:25:01.375Z,3.33
2022-09-11T17:27:29.648Z,4.00
2022-09-11T17:29:58.367Z,4.00
2022-09-11T17:32:28.854Z,5.00
2022-09-11T17:34:58.831Z,4.00
2022-09-11T17:37:28.796Z,3.00
2022-09-11T17:39:58.264Z,4.25
2022-09-11T17:42:28.014Z,3.50
2022-09-11T17:44:57.112Z,3.50
2022-09-11T17:47:26.512Z,3.50
2022-09-11T17:49:54.996Z,4.00
2022-09-11T17:52:24.092Z,4.50
2022-09-11T17:54:52.677Z,3.00
2022-09-11T17:57:21.159Z,6.33
2022-09-11T17:59:53.533Z,5.00
2022-09-11T18:02:22.457Z,8.00
2022-09-11T18:04:50.805Z,10.75
2022-09-11T18:07:19.489Z,11.75
2022-09-11T18:09:48.179Z,10.33
2022-09-11T18:12:16.455Z,15.50
2022-09-11T18:14:44.931Z,10.67
2022-09-11T18:17:13.516Z,10.50
2022-09-11T18:19:41.901Z,11.00
2022-09-11T18:22:10.488Z,13.00
2022-09-11T18:24:39.970Z,11.67
2022-09-11T18:27:09.941Z,10.50
2022-09-11T18:29:40.126Z,7.25
2022-09-11T18:32:10.125Z,9.00
2022-09-11T18:34:39.346Z,9.50
2022-09-11T18:37:08.235Z,9.00
2022-09-11T18:39:38.807Z,9.00
2022-09-11T18:42:07.592Z,9.00
2022-09-11T18:44:36.036Z,6.25
2022-09-11T18:47:04.823Z,9.50
2022-09-11T18:49:35.357Z,8.50
2022-09-11T18:52:04.043Z,7.25
2022-09-11T18:54:34.014Z,5.33
2022-09-11T18:57:03.871Z,6.75
2022-09-11T18:59:32.249Z,7.00
2022-09-11T19:02:01.463Z,8.00
2022-09-11T19:04:30.550Z,6.00
2022-09-11T19:07:00.307Z,8.00
2022-09-11T19:09:29.759Z,7.33
2022-09-11T19:12:00.291Z,5.75
2022-09-11T19:14:29.080Z,6.25
2022-09-11T19:17:00.143Z,7.50
2022-09-11T19:19:28.909Z,7.00
2022-09-11T19:21:57.183Z,6.67
2022-09-11T19:24:28.535Z,6.00
2022-09-11T19:26:57.527Z,7.50
2022-09-11T19:29:25.909Z,6.33
2022-09-11T19:31:55.105Z,5.00
2022-09-11T19:34:24.921Z,7.00
2022-09-11T19:36:53.809Z,5.25
2022-09-11T19:39:22.293Z,6.00
2022-09-11T19:41:50.570Z,6.33
2022-09-11T19:44:20.283Z,7.25
2022-09-11T19:46:53.757Z,3.50
2022-09-11T19:49:22.414Z,4.33
2022-09-11T19:51:52.376Z,4.00
2022-09-11T19:54:20.868Z,6.00
2022-09-11T19:56:50.578Z,6.50
2022-09-11T19:59:19.260Z,6.25
2022-09-11T20:01:47.799Z,7.67
2022-09-11T20:04:18.067Z,5.00
2022-09-11T20:09:30.451Z,6.00
2022-09-11T20:12:01.152Z,5.75
2022-09-11T20:14:30.734Z,5.00
2022-09-11T20:17:01.190Z,4.00
2022-09-11T20:19:29.754Z,6.00
2022-09-11T20:21:58.230Z,5.25
2022-09-11T20:24:26.814Z,5.00
2022-09-11T20:26:55.295Z,4.33
2022-09-11T20:29:23.682Z,6.00
2022-09-11T20:31:54.009Z,6.00
2022-09-11T20:34:24.988Z,5.50
2022-09-11T20:36:53.214Z,6.33
2022-09-11T20:39:21.913Z,6.00
2022-09-11T20:41:50.279Z,5.50
2022-09-11T20:44:18.869Z,5.75
2022-09-11T20:46:49.947Z,6.75
2022-09-11T20:49:18.283Z,4.67
2022-09-11T20:51:46.665Z,6.00
2022-09-11T20:54:15.454Z,5.00
2022-09-11T20:56:44.856Z,6.25
2022-09-11T20:59:13.137Z,6.33
2022-09-11T21:01:41.468Z,5.50
2022-09-11T21:04:10.533Z,6.00
2022-09-11T21:06:38.888Z,5.00
2022-09-11T21:09:09.345Z,5.00
2022-09-11T21:11:40.154Z,5.25
2022-09-11T21:14:09.145Z,7.00
2022-09-11T21:16:37.709Z,4.75
2022-09-11T21:19:06.315Z,4.00
2022-09-11T21:21:38.180Z,5.00
2022-09-11T21:24:11.059Z,5.67
2022-09-11T21:26:39.644Z,4.25
2022-09-11T21:29:09.456Z,4.00
2022-09-11T21:31:41.234Z,6.50
2022-09-11T21:34:09.904Z,4.67
2022-09-11T21:36:38.487Z,6.25
2022-09-11T21:39:07.023Z,5.00
2022-09-11T21:41:35.452Z,5.50
2022-09-11T21:44:04.241Z,4.00
2022-09-11T21:46:32.948Z,7.00
2022-09-11T21:49:02.102Z,5.25
2022-09-11T21:51:30.402Z,5.00
2022-09-11T21:53:59.499Z,7.25
2022-09-11T21:56:32.845Z,5.00
2022-09-11T21:59:01.893Z,5.00
2022-09-11T22:01:32.115Z,5.00
2022-09-11T22:04:00.794Z,5.00
2022-09-11T22:06:30.165Z,4.75
2022-09-11T22:08:58.989Z,5.00
2022-09-11T22:11:27.778Z,5.00
2022-09-11T22:13:56.262Z,6.00
2022-09-11T22:16:25.294Z,6.67
2022-09-11T22:18:54.763Z,4.25
2022-09-11T22:21:24.569Z,3.25
2022-09-11T22:23:52.963Z,6.00
2022-09-11T22:26:23.871Z,6.25
2022-09-11T22:28:53.055Z,5.50
2022-09-11T22:31:24.419Z,3.25
2022-09-11T22:33:54.251Z,5.00
2022-09-11T22:36:27.533Z,4.75
2022-09-11T22:38:56.581Z,6.00
2022-09-11T22:41:26.324Z,5.50
2022-09-11T22:43:54.558Z,5.67
2022-09-11T22:46:24.441Z,5.00
2022-09-11T22:48:53.435Z,5.75
2022-09-11T22:51:21.713Z,5.33
2022-09-11T22:53:50.092Z,7.33
2022-09-11T22:56:18.680Z,6.00
2022-09-11T22:58:47.086Z,2.00
2022-09-11T23:01:21.641Z,5.00
2022-09-11T23:03:53.077Z,4.00
2022-09-11T23:06:40.767Z,5.67
2022-09-11T23:09:13.153Z,5.00
2022-09-11T23:11:41.530Z,5.00
2022-09-11T23:14:14.130Z,4.00
2022-09-11T23:16:43.548Z,6.75
2022-09-11T23:19:14.541Z,5.00
2022-09-11T23:21:43.125Z,4.00
2022-09-11T23:24:14.730Z,4.50
2022-09-11T23:26:44.360Z,5.50
2022-09-11T23:29:13.181Z,4.50
2022-09-11T23:31:42.121Z,5.00
2022-09-11T23:34:11.950Z,5.00
2022-09-11T23:36:40.159Z,5.25
2022-09-11T23:39:08.561Z,3.00
2022-09-11T23:41:36.816Z,5.00
2022-09-11T23:44:05.809Z,6.75
2022-09-11T23:46:34.291Z,5.50
2022-09-11T23:49:02.669Z,4.25
2022-09-11T23:51:31.049Z,4.00
2022-09-11T23:53:59.426Z,3.67
2022-09-11T23:56:27.706Z,3.00
2022-09-11T23:58:56.086Z,4.00
